Terminal Aerodrome Forecast
Issued by NWS

Home | Current Version | Previous Version | Text Only | Print | Product List | Glossary On
Versions: 1 2 3 4 5 6 7 8 9 10 11 12 13 14 15
000
FTUS44 KTSA 291100
TAFFYV
TAF
KFYV 291128Z 2912/3012 18005KT P6SM VCTS BKN100CB
      TEMPO 2912/2914 4SM -TSRA BKN025CB
     FM291400 17006KT P6SM OVC050
      TEMPO 2914/2918 P6SM -TSRA BKN025CB
     FM292200 20005KT 4SM -TSRA BR OVC025CB
     FM300000 20005KT 4SM -RA BR OVC025
      TEMPO 3000/3002 2SM -TSRA BKN015CB
     FM300200 VRB04KT 4SM -RA BR OVC015=

USA.gov is the U.S. government's official web portal to all federal, state and local government web resources and services.